createdAt,value
2022-12-15T00:00:35.526Z,-9.18
2022-12-15T00:01:35.439Z,-9.19
2022-12-15T00:02:35.917Z,-9.19
2022-12-15T00:03:36.663Z,-9.20
2022-12-15T00:04:36.433Z,-9.19
2022-12-15T00:05:36.787Z,-9.22
2022-12-15T00:06:37.146Z,-9.22
2022-12-15T00:07:39.094Z,-9.22
2022-12-15T00:08:39.984Z,-9.27
2022-12-15T00:09:38.401Z,-9.31
2022-12-15T00:10:38.753Z,-9.31
2022-12-15T00:11:39.088Z,-9.37
2022-12-15T00:12:39.239Z,-9.40
2022-12-15T00:13:40.623Z,-9.46
2022-12-15T00:14:40.079Z,-9.45
2022-12-15T00:15:40.595Z,-9.41
2022-12-15T00:16:41.033Z,-9.40
2022-12-15T00:17:42.170Z,-9.33
2022-12-15T00:18:41.592Z,-9.31
2022-12-15T00:19:42.974Z,-9.30
2022-12-15T00:20:43.325Z,-9.28
2022-12-15T00:21:42.735Z,-9.28
2022-12-15T00:22:43.116Z,-9.34
2022-12-15T00:23:43.460Z,-9.36
2022-12-15T00:24:44.144Z,-9.38
2022-12-15T00:25:46.159Z,-9.46
2022-12-15T00:26:46.536Z,-9.46
2022-12-15T00:27:46.859Z,-9.49
2022-12-15T00:28:46.174Z,-9.50
2022-12-15T00:29:45.543Z,-9.49
2022-12-15T00:30:50.097Z,-9.53
2022-12-15T00:31:46.286Z,-9.52
2022-12-15T00:32:46.164Z,-9.52
2022-12-15T00:33:46.603Z,-9.52
2022-12-15T00:34:47.606Z,-9.50
2022-12-15T00:35:48.542Z,-9.46
2022-12-15T00:36:49.904Z,-9.41
2022-12-15T00:37:48.441Z,-9.40
2022-12-15T00:38:49.719Z,-9.40
2022-12-15T00:39:50.149Z,-9.45
2022-12-15T00:40:48.464Z,-9.46
2022-12-15T00:41:49.135Z,-9.46
2022-12-15T00:42:49.523Z,-9.52
2022-12-15T00:43:51.070Z,-9.56
2022-12-15T00:44:49.453Z,-9.58
2022-12-15T00:45:50.849Z,-9.53
2022-12-15T00:46:51.387Z,-9.52
2022-12-15T00:47:50.262Z,-9.52
2022-12-15T00:48:51.619Z,-9.49
2022-12-15T00:49:53.028Z,-9.49
2022-12-15T00:50:51.337Z,-9.48
2022-12-15T00:51:53.620Z,-9.49
2022-12-15T00:52:51.960Z,-9.50
2022-12-15T00:53:52.425Z,-9.55
2022-12-15T00:54:54.210Z,-9.58
2022-12-15T00:55:54.957Z,-9.62
2022-12-15T00:56:54.817Z,-9.69
2022-12-15T00:57:54.661Z,-9.77
2022-12-15T00:58:55.264Z,-9.79
2022-12-15T00:59:55.650Z,-9.84
2022-12-15T01:00:54.445Z,-9.85
2022-12-15T01:01:54.991Z,-9.82
2022-12-15T01:02:56.084Z,-9.76
2022-12-15T01:03:55.199Z,-9.71
2022-12-15T01:04:55.968Z,-9.71
2022-12-15T01:05:55.366Z,-9.73
2022-12-15T01:06:57.754Z,-9.74
2022-12-15T01:07:58.192Z,-9.74
2022-12-15T01:08:56.675Z,-9.77
2022-12-15T01:09:58.504Z,-9.80
2022-12-15T01:10:57.407Z,-9.82
2022-12-15T01:11:58.692Z,-9.82
2022-12-15T01:12:58.162Z,-9.84
2022-12-15T01:13:58.516Z,-9.87
2022-12-15T01:14:58.864Z,-9.87
2022-12-15T01:16:00.330Z,-9.87
2022-12-15T01:16:59.247Z,-9.91
2022-12-15T01:18:00.742Z,-9.92
2022-12-15T01:18:59.630Z,-9.92
2022-12-15T01:19:59.959Z,-9.91
2022-12-15T01:21:25.892Z,-10.00
2022-12-15T01:22:27.328Z,-10.05
2022-12-15T01:23:26.883Z,-10.10
2022-12-15T01:24:26.881Z,-10.16
2022-12-15T01:25:27.255Z,-10.20
2022-12-15T01:26:29.573Z,-10.23
2022-12-15T01:27:28.866Z,-10.26
2022-12-15T01:28:29.202Z,-10.24
2022-12-15T01:29:28.687Z,-10.18
2022-12-15T01:30:29.077Z,-10.10
2022-12-15T01:31:29.711Z,-10.03
2022-12-15T01:32:29.562Z,-10.00
2022-12-15T01:33:31.528Z,-10.00
2022-12-15T01:34:33.400Z,-9.97
2022-12-15T01:35:30.194Z,-9.94
2022-12-15T01:36:33.068Z,-9.95
2022-12-15T01:37:33.029Z,-9.97
2022-12-15T01:38:34.181Z,-9.94
2022-12-15T01:39:31.459Z,-9.89
2022-12-15T01:40:32.874Z,-9.85
2022-12-15T01:41:32.154Z,-9.85
2022-12-15T01:42:32.468Z,-9.84
2022-12-15T01:43:33.141Z,-9.84
2022-12-15T01:44:33.169Z,-9.80
2022-12-15T01:45:33.642Z,-9.80
2022-12-15T01:46:35.464Z,-9.79
2022-12-15T01:47:36.773Z,-9.79
2022-12-15T01:48:35.683Z,-9.80
2022-12-15T01:49:34.931Z,-9.87
2022-12-15T01:50:35.176Z,-9.91
2022-12-15T01:51:37.429Z,-9.95
2022-12-15T01:52:35.739Z,-10.02
2022-12-15T01:53:36.080Z,-10.09
2022-12-15T01:54:36.415Z,-10.12
2022-12-15T01:55:36.695Z,-10.20
2022-12-15T01:56:38.190Z,-10.24
2022-12-15T01:57:37.049Z,-10.27
2022-12-15T01:58:38.356Z,-10.29
2022-12-15T01:59:38.578Z,-10.26
2022-12-15T02:00:37.911Z,-10.29
2022-12-15T02:01:38.416Z,-10.29
2022-12-15T02:02:40.644Z,-10.33
2022-12-15T02:03:38.671Z,-10.33
2022-12-15T02:04:38.917Z,-10.29
2022-12-15T02:05:39.237Z,-10.24
2022-12-15T02:06:40.476Z,-10.26
2022-12-15T02:07:41.686Z,-10.27
2022-12-15T02:08:40.110Z,-10.21
2022-12-15T02:09:42.322Z,-10.16
2022-12-15T02:10:42.598Z,-10.09
2022-12-15T02:11:41.815Z,-10.02
2022-12-15T02:12:41.158Z,-9.95
2022-12-15T02:13:42.357Z,-9.89
2022-12-15T02:14:41.611Z,-9.87
2022-12-15T02:15:41.933Z,-9.88
2022-12-15T02:16:46.321Z,-9.91
2022-12-15T02:17:44.746Z,-9.94
2022-12-15T02:18:44.142Z,-9.97
2022-12-15T02:19:43.457Z,-9.98
2022-12-15T02:20:45.949Z,-9.95
2022-12-15T02:21:43.906Z,-9.95
2022-12-15T02:22:45.694Z,-9.97
2022-12-15T02:23:44.518Z,-9.97
2022-12-15T02:24:44.794Z,-9.98
2022-12-15T02:25:47.026Z,-10.02
2022-12-15T02:26:45.140Z,-10.02
2022-12-15T02:27:47.385Z,-10.03
2022-12-15T02:28:46.564Z,-10.03
2022-12-15T02:29:45.967Z,-9.98
2022-12-15T02:30:46.207Z,-10.00
2022-12-15T02:31:49.971Z,-10.00
2022-12-15T02:32:46.873Z,-10.02
2022-12-15T02:33:48.644Z,-10.03
2022-12-15T02:34:47.404Z,-10.08
2022-12-15T02:35:48.749Z,-10.10
2022-12-15T02:36:48.547Z,-10.09
2022-12-15T02:37:49.680Z,-10.06
2022-12-15T02:38:50.651Z,-10.06
2022-12-15T02:39:48.519Z,-10.03
2022-12-15T02:40:49.035Z,-10.02
2022-12-15T02:41:49.364Z,-10.00
2022-12-15T02:42:49.669Z,-10.02
2022-12-15T02:43:50.932Z,-10.03
2022-12-15T02:44:50.265Z,-10.06
2022-12-15T02:45:52.556Z,-10.09
2022-12-15T02:46:52.233Z,-10.12
2022-12-15T02:47:53.141Z,-10.20
2022-12-15T02:48:52.369Z,-10.21
2022-12-15T02:49:52.595Z,-10.21
2022-12-15T02:50:51.910Z,-10.21
2022-12-15T02:51:52.204Z,-10.16
2022-12-15T02:52:54.485Z,-10.10
2022-12-15T02:53:54.775Z,-10.00
2022-12-15T02:54:54.065Z,-9.95
2022-12-15T02:55:55.902Z,-9.92
2022-12-15T02:56:53.807Z,-9.94
2022-12-15T02:57:56.309Z,-9.98
2022-12-15T02:58:54.559Z,-10.00
2022-12-15T02:59:54.866Z,-10.03
2022-12-15T03:00:55.212Z,-10.05
2022-12-15T03:01:56.695Z,-10.09
2022-12-15T03:02:55.840Z,-10.12
2022-12-15T03:03:55.814Z,-10.13
2022-12-15T03:04:56.183Z,-10.09
2022-12-15T03:05:56.492Z,-10.10
2022-12-15T03:07:01.055Z,-10.08
2022-12-15T03:07:56.981Z,-10.08
2022-12-15T03:08:57.719Z,-10.03
2022-12-15T03:09:58.146Z,-10.02
2022-12-15T03:10:57.522Z,-9.98
2022-12-15T03:11:57.883Z,-10.00
2022-12-15T03:12:59.471Z,-9.97
2022-12-15T03:13:58.207Z,-9.95
2022-12-15T03:14:58.493Z,-9.95
2022-12-15T03:16:00.783Z,-9.97
2022-12-15T03:16:59.257Z,-9.94
2022-12-15T03:18:01.667Z,-9.92
2022-12-15T03:18:59.994Z,-9.94
2022-12-15T03:20:00.271Z,-9.91
2022-12-15T03:21:00.532Z,-9.94
2022-12-15T03:22:00.875Z,-9.94
2022-12-15T03:23:02.203Z,-9.92
2022-12-15T03:24:01.464Z,-9.89
2022-12-15T03:25:02.813Z,-9.89
2022-12-15T03:26:02.197Z,-9.88
2022-12-15T03:27:03.170Z,-9.87
2022-12-15T03:28:04.898Z,-9.88
2022-12-15T03:29:04.039Z,-9.88
2022-12-15T03:30:04.159Z,-9.87
2022-12-15T03:31:04.396Z,-9.89
2022-12-15T03:32:06.022Z,-9.92
2022-12-15T03:33:04.830Z,-9.97
2022-12-15T03:34:05.086Z,-9.98
2022-12-15T03:35:05.288Z,-10.00
2022-12-15T03:36:05.567Z,-9.97
2022-12-15T03:37:06.368Z,-9.94
2022-12-15T03:38:06.791Z,-9.88
2022-12-15T03:39:06.558Z,-9.85
2022-12-15T03:40:06.438Z,-9.80
2022-12-15T03:41:07.261Z,-9.79
2022-12-15T03:42:07.359Z,-9.79
2022-12-15T03:43:07.591Z,-9.79
2022-12-15T03:44:07.841Z,-9.82
2022-12-15T03:45:07.294Z,-9.87
2022-12-15T03:46:08.617Z,-9.89
2022-12-15T03:47:08.890Z,-9.92
2022-12-15T03:48:09.173Z,-9.92
2022-12-15T03:49:09.414Z,-9.89
2022-12-15T03:50:09.457Z,-9.88
2022-12-15T03:51:09.739Z,-9.88
2022-12-15T03:52:09.790Z,-9.88
2022-12-15T03:53:10.117Z,-9.88
2022-12-15T03:54:10.351Z,-9.87
2022-12-15T03:55:10.791Z,-9.88
2022-12-15T03:56:11.079Z,-9.92
2022-12-15T03:57:11.804Z,-9.91
2022-12-15T03:58:11.614Z,-9.87
2022-12-15T03:59:12.883Z,-9.88
2022-12-15T04:00:13.166Z,-9.92
2022-12-15T04:01:12.893Z,-9.97
2022-12-15T04:02:12.782Z,-9.95
2022-12-15T04:03:13.844Z,-9.92
2022-12-15T04:04:13.136Z,-9.95
2022-12-15T04:05:12.796Z,-9.95
2022-12-15T04:06:12.045Z,-9.94
2022-12-15T04:07:13.308Z,-9.85
2022-12-15T04:08:13.640Z,-9.77
2022-12-15T04:09:13.986Z,-9.71
2022-12-15T04:10:15.221Z,-9.64
2022-12-15T04:11:14.368Z,-9.58
2022-12-15T04:12:14.577Z,-9.56
2022-12-15T04:13:13.903Z,-9.56
2022-12-15T04:14:15.091Z,-9.58
2022-12-15T04:15:14.317Z,-9.62
2022-12-15T04:16:19.476Z,-9.70
2022-12-15T04:17:17.048Z,-9.73
2022-12-15T04:18:17.436Z,-9.77
2022-12-15T04:19:15.715Z,-9.79
2022-12-15T04:20:16.961Z,-9.84
2022-12-15T04:21:17.403Z,-9.84
2022-12-15T04:22:18.174Z,-9.80
2022-12-15T04:23:18.956Z,-9.80
2022-12-15T04:24:17.270Z,-9.79
2022-12-15T04:25:17.555Z,-9.79
2022-12-15T04:26:17.852Z,-9.80
2022-12-15T04:27:18.168Z,-9.84
2022-12-15T04:28:20.531Z,-9.84
2022-12-15T04:29:18.404Z,-9.77
2022-12-15T04:30:18.714Z,-9.76
2022-12-15T04:31:19.068Z,-9.76
2022-12-15T04:32:19.408Z,-9.79
2022-12-15T04:33:19.712Z,-9.84
2022-12-15T04:34:20.041Z,-9.89
2022-12-15T04:35:21.424Z,-9.97
2022-12-15T04:36:22.686Z,-10.06
2022-12-15T04:37:22.083Z,-10.10
2022-12-15T04:38:23.382Z,-10.15
2022-12-15T04:39:21.711Z,-10.18
2022-12-15T04:40:22.029Z,-10.18
2022-12-15T04:41:23.643Z,-10.12
2022-12-15T04:42:23.384Z,-10.02
2022-12-15T04:43:22.736Z,-9.92
2022-12-15T04:44:23.003Z,-9.89
2022-12-15T04:45:23.338Z,-9.85
2022-12-15T04:46:25.311Z,-9.82
2022-12-15T04:47:24.857Z,-9.79
2022-12-15T04:48:28.006Z,-9.74
2022-12-15T04:49:24.244Z,-9.73
2022-12-15T04:50:25.440Z,-9.71
2022-12-15T04:51:24.772Z,-9.70
2022-12-15T04:52:25.870Z,-9.66
2022-12-15T04:53:25.143Z,-9.66
2022-12-15T04:54:26.483Z,-9.66
2022-12-15T04:55:27.717Z,-9.64
2022-12-15T04:56:26.963Z,-9.67
2022-12-15T04:57:26.267Z,-9.66
2022-12-15T04:58:28.138Z,-9.66
2022-12-15T04:59:28.446Z,-9.62
2022-12-15T05:00:27.272Z,-9.60
2022-12-15T05:01:27.717Z,-9.62
2022-12-15T05:02:28.679Z,-9.60
2022-12-15T05:03:27.641Z,-9.59
2022-12-15T05:04:30.059Z,-9.59
2022-12-15T05:05:28.424Z,-9.59
2022-12-15T05:06:28.737Z,-9.59
2022-12-15T05:07:31.008Z,-9.62
2022-12-15T05:08:29.417Z,-9.64
2022-12-15T05:09:31.686Z,-9.64
2022-12-15T05:10:31.992Z,-9.62
2022-12-15T05:11:32.339Z,-9.58
2022-12-15T05:12:30.752Z,-9.55
2022-12-15T05:13:32.577Z,-9.50
2022-12-15T05:14:33.143Z,-9.48
2022-12-15T05:15:31.915Z,-9.49
2022-12-15T05:16:32.290Z,-9.50
2022-12-15T05:17:34.538Z,-9.50
2022-12-15T05:18:33.760Z,-9.56
2022-12-15T05:19:35.057Z,-9.59
2022-12-15T05:20:33.465Z,-9.62
2022-12-15T05:21:33.741Z,-9.66
2022-12-15T05:22:35.993Z,-9.67
2022-12-15T05:23:35.612Z,-9.70
2022-12-15T05:24:35.958Z,-9.70
2022-12-15T05:25:34.865Z,-9.70
2022-12-15T05:26:36.303Z,-9.73
2022-12-15T05:27:35.545Z,-9.74
2022-12-15T05:28:37.819Z,-9.74
2022-12-15T05:29:36.200Z,-9.71
2022-12-15T05:30:37.599Z,-9.70
2022-12-15T05:31:37.944Z,-9.70
2022-12-15T05:32:37.284Z,-9.71
2022-12-15T05:33:37.678Z,-9.69
2022-12-15T05:34:38.939Z,-9.69
2022-12-15T05:35:38.294Z,-9.69
2022-12-15T05:36:39.581Z,-9.70
2022-12-15T05:37:40.369Z,-9.66
2022-12-15T05:38:39.337Z,-9.64
2022-12-15T05:39:39.110Z,-9.60
2022-12-15T05:40:39.435Z,-9.64
2022-12-15T05:41:40.736Z,-9.66
2022-12-15T05:42:40.092Z,-9.69
2022-12-15T05:43:40.450Z,-9.69
2022-12-15T05:44:40.831Z,-9.70
2022-12-15T05:45:41.128Z,-9.70
2022-12-15T05:46:42.486Z,-9.70
2022-12-15T05:47:41.831Z,-9.74
2022-12-15T05:48:42.184Z,-9.79
2022-12-15T05:49:42.451Z,-9.76
2022-12-15T05:50:42.947Z,-9.73
2022-12-15T05:51:42.750Z,-9.69
2022-12-15T05:52:49.197Z,-9.70
2022-12-15T05:53:43.667Z,-9.70
2022-12-15T05:54:43.472Z,-9.74
2022-12-15T05:55:43.747Z,-9.77
2022-12-15T05:56:46.967Z,-9.84
2022-12-15T05:57:44.443Z,-9.91
2022-12-15T05:58:45.712Z,-10.03
2022-12-15T05:59:47.099Z,-10.15
2022-12-15T06:00:45.357Z,-10.21
2022-12-15T06:01:47.713Z,-10.21
2022-12-15T06:02:46.151Z,-10.12
2022-12-15T06:03:46.508Z,-10.03
2022-12-15T06:04:46.889Z,-9.94
2022-12-15T06:05:51.676Z,-9.89
2022-12-15T06:06:49.080Z,-9.85
2022-12-15T06:07:49.837Z,-9.82
2022-12-15T06:08:50.180Z,-9.79
2022-12-15T06:09:48.690Z,-9.77
2022-12-15T06:10:48.943Z,-9.73
2022-12-15T06:11:50.226Z,-9.74
2022-12-15T06:12:49.492Z,-9.76
2022-12-15T06:13:51.925Z,-9.76
2022-12-15T06:14:50.187Z,-9.74
2022-12-15T06:15:52.532Z,-9.77
2022-12-15T06:16:51.977Z,-9.80
2022-12-15T06:17:52.301Z,-9.87
2022-12-15T06:18:51.987Z,-9.88
2022-12-15T06:19:52.177Z,-9.89
2022-12-15T06:20:51.536Z,-9.88
2022-12-15T06:21:52.554Z,-9.88
2022-12-15T06:22:52.761Z,-9.88
2022-12-15T06:23:53.107Z,-9.85
2022-12-15T06:24:52.431Z,-9.76
2022-12-15T06:25:52.880Z,-9.71
2022-12-15T06:26:54.156Z,-9.62
2022-12-15T06:27:58.450Z,-9.59
2022-12-15T06:28:54.141Z,-9.56
2022-12-15T06:29:54.876Z,-9.59
2022-12-15T06:30:55.010Z,-9.66
2022-12-15T06:31:55.292Z,-9.70
2022-12-15T06:32:55.567Z,-9.76
2022-12-15T06:34:01.329Z,-9.80
2022-12-15T06:34:56.126Z,-9.87
2022-12-15T06:35:56.376Z,-9.89
2022-12-15T06:36:56.564Z,-9.89
2022-12-15T06:37:56.879Z,-9.87
2022-12-15T06:38:57.114Z,-9.76
2022-12-15T06:39:57.331Z,-9.66
2022-12-15T06:40:57.376Z,-9.56
2022-12-15T06:41:57.501Z,-9.52
2022-12-15T06:42:57.667Z,-9.49
2022-12-15T06:43:57.967Z,-9.49
2022-12-15T06:44:58.814Z,-9.49
2022-12-15T06:45:58.432Z,-9.52
2022-12-15T06:46:58.695Z,-9.52
2022-12-15T06:48:01.486Z,-9.49
2022-12-15T06:48:58.908Z,-9.46
2022-12-15T06:49:59.085Z,-9.41
2022-12-15T06:50:58.432Z,-9.40
2022-12-15T06:51:58.806Z,-9.37
2022-12-15T06:52:59.142Z,-9.37
2022-12-15T06:54:00.249Z,-9.36
2022-12-15T06:55:00.380Z,-9.31
2022-12-15T06:56:00.557Z,-9.27
2022-12-15T06:56:59.851Z,-9.27
2022-12-15T06:58:00.923Z,-9.28
2022-12-15T06:59:01.870Z,-9.34
2022-12-15T07:00:01.212Z,-9.36
2022-12-15T07:01:00.523Z,-9.37
2022-12-15T07:02:00.927Z,-9.38
2022-12-15T07:03:01.065Z,-9.36
2022-12-15T07:04:01.212Z,-9.36
2022-12-15T07:05:01.975Z,-9.37
2022-12-15T07:06:02.203Z,-9.38
2022-12-15T07:07:02.303Z,-9.38
2022-12-15T07:08:02.585Z,-9.40
2022-12-15T07:09:02.865Z,-9.45
2022-12-15T07:10:03.191Z,-9.50
2022-12-15T07:11:03.207Z,-9.55
2022-12-15T07:12:03.352Z,-9.55
2022-12-15T07:13:03.608Z,-9.52
2022-12-15T07:14:03.651Z,-9.48
2022-12-15T07:15:02.961Z,-9.37
2022-12-15T07:16:04.081Z,-9.38
2022-12-15T07:17:03.399Z,-9.38
2022-12-15T07:18:04.715Z,-9.38
2022-12-15T07:19:04.760Z,-9.38
2022-12-15T07:20:04.958Z,-9.37
2022-12-15T07:21:05.057Z,-9.36
2022-12-15T07:22:05.373Z,-9.36
2022-12-15T07:23:05.701Z,-9.33
2022-12-15T07:24:07.472Z,-9.30
2022-12-15T07:25:06.221Z,-9.31
2022-12-15T07:26:11.255Z,-9.30
2022-12-15T07:27:06.563Z,-9.28
2022-12-15T07:28:06.864Z,-9.27
2022-12-15T07:29:07.185Z,-9.28
2022-12-15T07:30:07.346Z,-9.33
2022-12-15T07:31:07.740Z,-9.36
2022-12-15T07:32:07.877Z,-9.38
2022-12-15T07:33:08.204Z,-9.38
2022-12-15T07:34:08.370Z,-9.38
2022-12-15T07:35:07.864Z,-9.36
2022-12-15T07:36:08.955Z,-9.33
2022-12-15T07:37:09.176Z,-9.28
2022-12-15T07:38:09.388Z,-9.22
2022-12-15T07:39:09.713Z,-9.22
2022-12-15T07:40:10.245Z,-9.15
2022-12-15T07:41:09.095Z,-9.08
2022-12-15T07:42:10.199Z,-8.99
2022-12-15T07:43:10.440Z,-8.92
2022-12-15T07:44:10.535Z,-8.88
2022-12-15T07:45:12.921Z,-8.80
2022-12-15T07:46:12.110Z,-8.76
2022-12-15T07:47:11.254Z,-8.73
2022-12-15T07:48:11.499Z,-8.66
2022-12-15T07:49:12.910Z,-8.60
2022-12-15T07:50:12.019Z,-8.52
2022-12-15T07:51:19.035Z,-8.44
2022-12-15T07:52:12.299Z,-8.29
2022-12-15T07:53:12.491Z,-8.20
2022-12-15T07:54:12.638Z,-8.08
2022-12-15T07:55:12.807Z,-7.91
2022-12-15T07:56:14.030Z,-7.84
2022-12-15T07:57:13.308Z,-7.72
2022-12-15T07:58:14.537Z,-7.66
2022-12-15T07:59:13.779Z,-7.63
2022-12-15T08:00:14.050Z,-7.54
2022-12-15T08:01:14.403Z,-7.47
2022-12-15T08:02:15.142Z,-7.39
2022-12-15T08:03:14.984Z,-7.33
2022-12-15T08:04:15.268Z,-7.27
2022-12-15T08:05:15.549Z,-7.20
2022-12-15T08:06:15.790Z,-7.03
2022-12-15T08:07:15.951Z,-6.84
2022-12-15T08:08:16.120Z,-6.64
2022-12-15T08:09:16.423Z,-6.54
2022-12-15T08:10:16.730Z,-6.52
2022-12-15T08:11:17.081Z,-6.50
2022-12-15T08:12:17.342Z,-6.44
2022-12-15T08:13:38.142Z,-6.39
2022-12-15T08:14:18.950Z,-6.44
2022-12-15T08:15:18.415Z,-6.50
2022-12-15T08:16:18.723Z,-6.44
2022-12-15T08:17:19.029Z,-6.37
2022-12-15T08:18:19.259Z,-6.26
2022-12-15T08:19:19.592Z,-6.12
2022-12-15T08:20:19.598Z,-5.94
2022-12-15T08:21:19.806Z,-5.73
2022-12-15T08:22:19.967Z,-5.55
2022-12-15T08:23:20.140Z,-5.33
2022-12-15T08:24:20.207Z,-5.17
2022-12-15T08:25:20.423Z,-5.07
2022-12-15T08:26:25.050Z,-5.00
2022-12-15T08:27:21.114Z,-4.95
2022-12-15T08:28:21.391Z,-4.86
2022-12-15T08:30:22.318Z,-4.48
2022-12-15T08:31:22.208Z,-4.32
2022-12-15T08:32:22.544Z,-4.11
2022-12-15T08:33:22.965Z,-3.89
2022-12-15T08:34:23.285Z,-3.70
2022-12-15T08:35:54.490Z,-3.46
2022-12-15T08:36:23.705Z,-3.25
2022-12-15T08:37:23.832Z,-3.05
2022-12-15T08:38:24.267Z,-2.89
2022-12-15T08:39:24.468Z,-2.71
2022-12-15T08:40:24.740Z,-2.61
2022-12-15T08:41:24.927Z,-2.47
2022-12-15T08:42:25.166Z,-2.32
2022-12-15T08:43:25.549Z,-2.14
2022-12-15T08:44:25.810Z,-2.00
2022-12-15T08:45:26.073Z,-1.84
2022-12-15T08:46:26.330Z,-1.66
2022-12-15T08:47:26.466Z,-1.45
2022-12-15T08:48:26.740Z,-1.25
2022-12-15T08:49:26.953Z,-1.07
2022-12-15T08:50:26.987Z,-0.92
2022-12-15T08:51:27.196Z,-0.77
2022-12-15T08:52:27.395Z,-0.62
2022-12-15T08:53:31.904Z,-0.47
2022-12-15T08:54:27.894Z,-0.30
2022-12-15T08:55:28.105Z,-0.24
2022-12-15T08:56:28.177Z,-0.23
2022-12-15T08:57:28.330Z,-0.27
2022-12-15T08:58:28.487Z,-0.45
2022-12-15T08:59:28.649Z,-0.62
2022-12-15T09:00:28.846Z,-0.86
2022-12-15T09:01:29.159Z,-0.95
2022-12-15T09:02:29.597Z,-1.06
2022-12-15T09:03:30.073Z,-1.17
2022-12-15T09:04:30.225Z,-1.25
2022-12-15T09:05:30.385Z,-1.33
2022-12-15T09:06:30.598Z,-1.35
2022-12-15T09:07:30.808Z,-1.28
2022-12-15T09:08:31.092Z,-1.21
2022-12-15T09:09:31.299Z,-1.15
2022-12-15T09:10:31.502Z,-1.09
2022-12-15T09:11:31.746Z,-0.99
2022-12-15T09:12:31.970Z,-0.87
2022-12-15T09:13:32.216Z,-0.78
2022-12-15T09:14:32.163Z,-0.72
2022-12-15T09:16:07.189Z,-0.68
2022-12-15T09:16:33.004Z,-0.63
2022-12-15T09:17:32.720Z,-0.51
2022-12-15T09:18:32.952Z,-0.44
2022-12-15T09:19:33.157Z,-0.37
2022-12-15T09:20:33.387Z,-0.33
2022-12-15T09:21:33.674Z,-0.30
2022-12-15T09:22:33.881Z,-0.27
2022-12-15T09:23:35.114Z,-0.30
2022-12-15T09:24:35.422Z,-0.24
2022-12-15T09:25:34.413Z,-0.29
2022-12-15T09:26:34.706Z,-0.30
2022-12-15T09:27:34.657Z,-0.19
2022-12-15T09:28:35.104Z,-0.12
2022-12-15T09:29:34.388Z,-0.04
2022-12-15T09:30:35.257Z,0.12
2022-12-15T09:31:35.376Z,0.36
2022-12-15T09:32:35.553Z,0.53
2022-12-15T09:33:35.271Z,0.64
2022-12-15T09:34:34.785Z,0.64
2022-12-15T09:35:36.040Z,0.70
2022-12-15T09:36:36.243Z,0.71
2022-12-15T09:37:35.465Z,0.75
2022-12-15T09:38:37.261Z,0.83
2022-12-15T09:39:37.490Z,0.82
2022-12-15T09:40:37.208Z,0.78
2022-12-15T09:41:37.934Z,0.70
2022-12-15T09:42:38.399Z,0.61
2022-12-15T09:43:44.537Z,0.58
2022-12-15T09:44:37.959Z,0.42
2022-12-15T09:45:38.740Z,0.09
2022-12-15T09:46:38.422Z,-0.19
2022-12-15T09:47:38.632Z,-0.59
2022-12-15T09:48:38.942Z,-0.81
2022-12-15T09:49:40.210Z,-0.83
2022-12-15T09:50:39.141Z,-0.80
2022-12-15T09:51:39.087Z,-0.86
2022-12-15T09:52:39.214Z,-0.95
2022-12-15T09:53:54.814Z,-1.05
2022-12-15T09:54:40.232Z,-0.97
2022-12-15T09:55:38.564Z,-0.75
2022-12-15T09:56:38.783Z,-0.50
2022-12-15T09:57:39.986Z,-0.27
2022-12-15T09:58:40.094Z,-0.05
2022-12-15T09:59:40.029Z,0.18
2022-12-15T10:00:40.072Z,0.39
2022-12-15T10:01:40.134Z,0.41
2022-12-15T10:02:40.460Z,0.33
2022-12-15T10:03:41.390Z,0.24
2022-12-15T10:04:41.148Z,0.12
2022-12-15T10:06:07.096Z,-0.06
2022-12-15T10:06:41.504Z,-0.06
2022-12-15T10:07:41.185Z,0.02
2022-12-15T10:08:41.351Z,0.12
2022-12-15T10:09:41.535Z,0.10
2022-12-15T10:10:41.558Z,0.20
2022-12-15T10:11:41.784Z,0.20
2022-12-15T10:12:53.209Z,0.24
2022-12-15T10:13:42.937Z,0.42
2022-12-15T10:14:41.955Z,0.57
2022-12-15T10:15:42.285Z,0.75
2022-12-15T10:16:42.267Z,0.70
2022-12-15T10:17:42.466Z,0.61
2022-12-15T10:18:42.721Z,0.64
2022-12-15T10:19:43.063Z,0.67
2022-12-15T10:20:43.217Z,0.67
2022-12-15T10:21:43.399Z,0.53
2022-12-15T10:22:43.569Z,0.43
2022-12-15T10:23:43.777Z,0.15
2022-12-15T10:25:44.431Z,-0.18
2022-12-15T10:26:44.129Z,-0.36
2022-12-15T10:27:44.573Z,-0.55
2022-12-15T10:28:44.744Z,-0.65
2022-12-15T10:29:44.738Z,-0.70
2022-12-15T10:30:44.656Z,-0.51
2022-12-15T10:31:44.909Z,-0.57
2022-12-15T10:32:50.691Z,-0.70
2022-12-15T10:33:50.149Z,-1.03
2022-12-15T10:34:45.094Z,-1.09
2022-12-15T10:35:45.346Z,-1.02
2022-12-15T10:36:45.478Z,-0.99
2022-12-15T10:37:45.740Z,-0.99
2022-12-15T10:38:46.221Z,-1.05
2022-12-15T10:39:46.404Z,-1.03
2022-12-15T10:40:50.060Z,-1.05
2022-12-15T10:41:46.620Z,-1.12
2022-12-15T10:42:47.565Z,-1.15
2022-12-15T10:43:47.031Z,-1.17
2022-12-15T10:44:50.570Z,-1.28
2022-12-15T10:45:47.577Z,-1.33
2022-12-15T10:46:47.672Z,-1.33
2022-12-15T10:47:47.752Z,-1.39
2022-12-15T15:03:06.721Z,-1.42
2022-12-15T15:03:33.408Z,-3.11
2022-12-15T15:04:32.208Z,-3.20
2022-12-15T15:05:33.468Z,-3.29
2022-12-15T15:06:32.753Z,-3.35
2022-12-15T15:07:34.504Z,-3.41
2022-12-15T15:08:34.876Z,-3.46
2022-12-15T15:09:33.717Z,-3.53
2022-12-15T15:10:33.965Z,-3.54
2022-12-15T15:11:36.175Z,-3.60
2022-12-15T15:12:34.375Z,-3.62
2022-12-15T15:13:39.368Z,-3.67
2022-12-15T15:14:34.606Z,-3.68
2022-12-15T15:15:34.833Z,-3.67
2022-12-15T15:16:35.137Z,-3.68
2022-12-15T15:17:35.370Z,-3.67
2022-12-15T15:18:37.087Z,-3.68
2022-12-15T15:19:39.332Z,-3.67
2022-12-15T15:20:36.098Z,-3.65
2022-12-15T15:21:37.843Z,-3.67
2022-12-15T15:22:38.006Z,-3.71
2022-12-15T15:23:36.712Z,-3.75
2022-12-15T15:24:36.954Z,-3.78
2022-12-15T15:25:41.388Z,-3.80
2022-12-15T15:26:38.811Z,-3.83
2022-12-15T15:27:37.545Z,-3.89
2022-12-15T15:28:37.737Z,-3.96
2022-12-15T15:29:39.278Z,-4.02
2022-12-15T15:30:38.091Z,-4.08
2022-12-15T15:31:41.875Z,-4.14
2022-12-15T15:32:38.410Z,-4.15
2022-12-15T15:33:38.640Z,-4.23
2022-12-15T15:34:38.864Z,-4.28
2022-12-15T15:35:39.299Z,-4.38
2022-12-15T15:36:39.556Z,-4.46
2022-12-15T15:37:40.624Z,-4.51
2022-12-15T15:38:39.833Z,-4.58
2022-12-15T15:39:40.074Z,-4.65
2022-12-15T15:40:40.262Z,-4.75
2022-12-15T15:41:40.474Z,-4.82
2022-12-15T15:42:40.713Z,-4.93
2022-12-15T15:43:40.963Z,-4.94
2022-12-15T15:44:41.156Z,-4.98
2022-12-15T15:45:41.365Z,-4.94
2022-12-15T15:46:42.677Z,-4.87
2022-12-15T15:47:42.264Z,-4.87
2022-12-15T15:48:41.950Z,-4.83
2022-12-15T15:49:42.220Z,-4.76
2022-12-15T15:50:42.434Z,-4.71
2022-12-15T15:51:42.684Z,-4.62
2022-12-15T15:52:42.875Z,-4.61
2022-12-15T15:53:43.103Z,-4.61
2022-12-15T15:54:43.355Z,-4.64
2022-12-15T15:55:43.905Z,-4.66
2022-12-15T15:56:44.463Z,-4.69
2022-12-15T15:57:44.633Z,-4.73
2022-12-15T15:58:43.895Z,-4.77
2022-12-15T15:59:44.216Z,-4.76
2022-12-15T16:00:44.407Z,-4.76
2022-12-15T16:01:46.796Z,-4.80
2022-12-15T16:02:44.735Z,-4.87
2022-12-15T16:03:44.758Z,-4.94
2022-12-15T16:04:45.012Z,-5.00
2022-12-15T16:05:45.206Z,-5.03
2022-12-15T16:06:48.010Z,-5.05
2022-12-15T16:07:46.746Z,-5.08
2022-12-15T16:08:45.989Z,-5.12
2022-12-15T16:09:46.227Z,-5.16
2022-12-15T16:10:46.461Z,-5.20
2022-12-15T16:11:46.685Z,-5.23
2022-12-15T16:12:47.834Z,-5.31
2022-12-15T16:13:49.034Z,-5.35
2022-12-15T16:14:47.313Z,-5.43
2022-12-15T16:15:49.035Z,-5.49
2022-12-15T16:16:50.684Z,-5.55
2022-12-15T16:17:49.384Z,-5.55
2022-12-15T16:18:48.078Z,-5.52
2022-12-15T16:19:48.356Z,-5.49
2022-12-15T16:20:48.570Z,-5.45
2022-12-15T16:21:48.807Z,-5.45
2022-12-15T16:22:50.003Z,-5.45
2022-12-15T16:23:49.184Z,-5.49
2022-12-15T16:24:50.372Z,-5.52
2022-12-15T16:25:51.112Z,-5.56
2022-12-15T16:26:49.957Z,-5.59
2022-12-15T16:27:50.179Z,-5.65
2022-12-15T16:28:52.355Z,-5.70
2022-12-15T16:29:51.582Z,-5.74
2022-12-15T16:30:50.890Z,-5.77
2022-12-15T16:31:51.235Z,-5.83
2022-12-15T16:32:51.454Z,-5.87
2022-12-15T16:33:51.675Z,-5.91
2022-12-15T16:34:52.070Z,-5.95
2022-12-15T16:35:52.279Z,-5.97
2022-12-15T16:36:54.491Z,-5.95
2022-12-15T16:37:54.156Z,-5.97
2022-12-15T16:38:52.882Z,-5.98
2022-12-15T16:39:53.132Z,-6.01
2022-12-15T16:40:53.342Z,-6.08
2022-12-15T16:41:55.717Z,-6.11
2022-12-15T16:42:53.953Z,-6.12
2022-12-15T16:43:54.126Z,-6.11
2022-12-15T16:44:54.402Z,-6.12
2022-12-15T16:45:54.634Z,-6.06
2022-12-15T16:46:55.865Z,-6.00
2022-12-15T16:47:55.190Z,-5.90
2022-12-15T16:48:55.459Z,-5.77
2022-12-15T16:49:55.805Z,-5.67
2022-12-15T16:50:55.982Z,-5.59
2022-12-15T16:51:56.221Z,-5.54
2022-12-15T16:52:57.381Z,-5.49
2022-12-15T16:53:56.635Z,-5.47
2022-12-15T16:54:56.884Z,-5.49
2022-12-15T16:55:57.126Z,-5.51
2022-12-15T16:56:57.386Z,-5.55
2022-12-15T16:57:59.578Z,-5.62
2022-12-15T16:59:30.968Z,-5.62
2022-12-15T17:00:00.224Z,-5.67
2022-12-15T17:00:58.471Z,-5.69
2022-12-15T17:01:58.826Z,-5.76
2022-12-15T17:02:59.287Z,-5.80
2022-12-15T17:04:00.180Z,-5.87
2022-12-15T17:04:59.469Z,-5.92
2022-12-15T17:06:00.631Z,-5.98
2022-12-15T17:07:01.323Z,-6.02
2022-12-15T17:08:01.071Z,-6.09
2022-12-15T17:09:00.342Z,-6.15
2022-12-15T17:10:01.494Z,-6.23
2022-12-15T17:11:00.769Z,-6.21